Queen Anne, Maryland
Current Conditions -  °F | °C
As of 9:53 AM on Wednesday 22 Oct 2014 (Local Time) from KESN Reporting Station
Light Rain Light Rain  
Wind Chill: 55°   Ceiling: 700
Heat Index: 55°   Visibility: 6mi
Dew Point: 55°   Wind: 10mph
Humidity: 100%   Direction: 20°NNE
Pressure: 29.9"   Gusts: NA
Location:  38.92°N, 75.96°W
Report Text: KESN 221353Z 02009KT 6SM -RA BR BKN007 OVC011 13/13 A2990
Loading
Personal Weather Stations






























Interactive Weather Map
Tropical Storm Tracking
New forecast layout! Learn more

10-Day Weather Forecast

Advertisements
Track Severe Weather on mobile